Time;durP1;ratioP1;P1;durP2;ratioP2;P2;SDS_P1;SDS_P2;PMS_P1;PMS_P2;Temp;Humidity;BMP_temperature;BMP_pressure;BME280_temperature;BME280_humidity;BME280_pressure;Samples;Min_cycle;Max_cycle;Signal;HPM_P1;HPM_P2
2022/09/08 00:00:11;;;;;;;7.73;7.03;;;;;;;16.56;100.00;98967.84;4917590;29;20227;-95
2022/09/08 00:02:38;;;;;;;8.67;7.87;;;;;;;16.51;100.00;98977.91;4935083;29;20224;-96
2022/09/08 00:05:06;;;;;;;8.77;8.00;;;;;;;16.44;100.00;98972.78;4933195;29;20242;-95
2022/09/08 00:07:35;;;;;;;8.53;7.77;;;;;;;16.43;100.00;98975.72;4920517;29;20693;-94
2022/09/08 00:10:03;;;;;;;8.00;7.30;;;;;;;16.33;100.00;98971.16;4921124;28;20237;-96
2022/09/08 00:12:30;;;;;;;8.27;7.57;;;;;;;16.31;100.00;98965.22;4917853;29;20237;-96
2022/09/08 00:15:00;;;;;;;8.17;7.47;;;;;;;16.29;100.00;98970.06;4936150;29;20244;-95
2022/09/08 00:17:28;;;;;;;8.27;7.57;;;;;;;16.25;100.00;98964.41;4907884;29;20237;-95
2022/09/08 00:19:54;;;;;;;7.90;7.30;;;;;;;16.21;100.00;98963.34;4919722;29;20237;-95
2022/09/08 00:22:21;;;;;;;7.80;7.20;;;;;;;16.20;100.00;98956.31;4919766;29;20256;-96
2022/09/08 00:24:48;;;;;;;8.13;7.30;;;;;;;16.16;100.00;98940.91;4919805;29;20233;-95
2022/09/08 00:27:14;;;;;;;8.00;7.30;;;;;;;16.15;100.00;98940.09;4916984;29;20230;-95
2022/09/08 00:29:41;;;;;;;8.37;7.57;;;;;;;16.16;100.00;98932.81;4909632;29;20328;-95
2022/09/08 00:32:08;;;;;;;8.33;7.63;;;;;;;16.09;100.00;98941.22;4914225;29;20238;-95
2022/09/08 00:34:34;;;;;;;9.03;8.13;;;;;;;16.10;100.00;98931.19;4913325;29;20240;-95
2022/09/08 00:37:02;;;;;;;8.03;7.33;;;;;;;16.07;100.00;98927.16;4931254;29;20233;-95
2022/09/08 00:39:28;;;;;;;8.57;7.77;;;;;;;16.03;100.00;98926.06;4919659;29;20332;-95
2022/09/08 00:41:55;;;;;;;8.50;7.70;;;;;;;15.99;100.00;98922.31;4919581;29;20234;-95
2022/09/08 00:44:40;;;;;;;7.80;7.20;;;;;;;15.94;100.00;98918.78;4899702;29;20315;-95
2022/09/08 00:47:15;;;;;;;7.73;7.13;;;;;;;15.92;100.00;98921.75;4913978;29;20242;-95
2022/09/08 00:49:43;;;;;;;7.43;6.83;;;;;;;15.92;100.00;98923.63;4917809;29;20226;-95
2022/09/08 00:52:10;;;;;;;7.40;6.80;;;;;;;15.83;100.00;98918.78;4916023;29;20238;-96
2022/09/08 00:54:37;;;;;;;8.17;7.17;;;;;;;15.85;100.00;98916.63;4911647;29;20245;-95
2022/09/08 00:57:05;;;;;;;7.63;7.03;;;;;;;15.72;100.00;98908.28;4927144;29;20229;-95
2022/09/08 00:59:33;;;;;;;7.67;7.00;;;;;;;15.79;100.00;98912.31;4929149;29;20697;-95
2022/09/08 01:02:01;;;;;;;7.90;7.10;;;;;;;15.72;100.00;98898.25;4931959;29;20234;-95
2022/09/08 01:04:28;;;;;;;7.40;6.70;;;;;;;15.70;100.00;98922.03;4911808;29;20233;-95
2022/09/08 01:12:54;;;;;;;7.90;7.10;;;;;;;15.62;100.00;98910.97;4904103;29;20233;-95
2022/09/08 01:15:24;;;;;;;8.17;7.37;;;;;;;15.57;100.00;98908.25;4911625;29;20233;-95
2022/09/08 01:17:53;;;;;;;8.33;7.53;;;;;;;15.47;100.00;98903.63;4916830;29;20320;-95
2022/09/08 01:20:28;;;;;;;7.80;7.10;;;;;;;15.38;100.00;98905.25;4900918;29;20240;-96
2022/09/08 01:23:39;;;;;;;7.30;6.70;;;;;;;15.34;100.00;98896.06;4932812;29;20760;-94
2022/09/08 01:26:09;;;;;;;7.53;6.93;;;;;;;15.31;100.00;98897.41;4861974;29;20336;-95
2022/09/08 01:28:35;;;;;;;7.70;6.93;;;;;;;15.30;100.00;98903.06;4911232;29;20221;-96
2022/09/08 01:31:03;;;;;;;7.87;7.17;;;;;;;15.26;100.00;98901.97;4929946;29;20267;-95
2022/09/08 01:33:30;;;;;;;8.00;7.30;;;;;;;15.24;100.00;98887.94;4914873;29;20238;-96
2022/09/08 01:35:57;;;;;;;7.40;6.73;;;;;;;15.24;100.00;98906.84;4910690;29;20246;-96
2022/09/08 01:38:24;;;;;;;7.70;7.10;;;;;;;15.20;100.00;98909.25;4909035;29;20237;-95
2022/09/08 01:40:50;;;;;;;7.87;7.07;;;;;;;15.11;100.00;98912.75;4908368;29;20727;-95
2022/09/08 01:43:17;;;;;;;7.73;7.13;;;;;;;15.11;100.00;98902.78;4933355;28;20232;-95
2022/09/08 01:45:44;;;;;;;7.87;7.07;;;;;;;15.06;100.00;98902.75;4930728;28;20246;-95
2022/09/08 01:48:10;;;;;;;7.43;6.83;;;;;;;15.06;100.00;98899.25;4937415;28;20236;-95
2022/09/08 01:50:37;;;;;;;7.50;6.90;;;;;;;15.06;100.00;98897.34;4955002;28;20225;-95
2022/09/08 01:53:04;;;;;;;7.27;6.67;;;;;;;15.05;100.00;98903.00;4931394;28;20240;-95
2022/09/08 01:55:30;;;;;;;7.03;6.47;;;;;;;15.02;100.00;98898.16;4922221;28;20229;-94
2022/09/08 01:57:57;;;;;;;7.27;6.70;;;;;;;14.97;100.00;98898.97;4914854;28;20255;-94
2022/09/08 02:00:24;;;;;;;7.37;6.67;;;;;;;14.94;100.00;98885.97;4928935;28;20228;-94
2022/09/08 02:02:50;;;;;;;7.13;6.53;;;;;;;14.94;100.00;98894.06;4941534;28;20320;-95
2022/09/08 02:05:17;;;;;;;7.20;6.60;;;;;;;14.89;100.00;98900.25;4926758;28;20748;-95
2022/09/08 02:07:50;;;;;;;7.80;7.10;;;;;;;14.93;100.00;98912.13;4935491;28;20753;-95
2022/09/08 02:10:17;;;;;;;6.77;6.27;;;;;;;14.93;100.00;98911.34;4942573;28;20228;-94
2022/09/08 02:12:43;;;;;;;7.00;6.40;;;;;;;14.92;100.00;98912.41;4944486;28;20311;-95
2022/09/08 02:15:11;;;;;;;7.40;6.67;;;;;;;14.87;100.00;98902.44;4928912;28;20232;-95
2022/09/08 02:17:37;;;;;;;7.80;7.10;;;;;;;14.86;100.00;98905.38;4941465;28;20315;-95
2022/09/08 02:20:05;;;;;;;6.50;6.00;;;;;;;14.91;100.00;98887.34;4925187;29;20233;-95
2022/09/08 02:22:32;;;;;;;6.50;6.00;;;;;;;14.85;100.00;98872.22;4922241;28;20236;-95
2022/09/08 02:24:59;;;;;;;6.57;6.07;;;;;;;14.82;100.00;98888.13;4929148;28;20231;-95
2022/09/08 02:27:26;;;;;;;6.27;5.77;;;;;;;14.82;100.00;98878.13;4935892;28;20291;-95
2022/09/08 02:29:52;;;;;;;6.57;6.00;;;;;;;14.74;100.00;98891.31;4931835;28;20307;-96
2022/09/08 02:32:19;;;;;;;6.80;6.20;;;;;;;14.68;100.00;98879.72;4955741;28;20276;-95
2022/09/08 02:34:46;;;;;;;6.70;6.20;;;;;;;14.69;100.00;98864.34;4936881;28;20240;-95
2022/09/08 02:37:12;;;;;;;6.70;6.10;;;;;;;14.68;100.00;98870.81;4938999;28;20232;-95
2022/09/08 02:39:39;;;;;;;6.23;5.73;;;;;;;14.66;100.00;98867.56;4928529;28;20247;-95
2022/09/08 02:42:07;;;;;;;6.70;6.10;;;;;;;14.64;100.00;98864.31;4941281;28;20228;-93
2022/09/08 02:44:34;;;;;;;6.77;6.23;;;;;;;14.63;100.00;98868.09;4932382;28;20702;-96
2022/09/08 02:47:01;;;;;;;7.00;6.50;;;;;;;14.65;100.00;98869.44;4937850;28;20232;-96
2022/09/08 02:49:30;;;;;;;6.70;6.20;;;;;;;14.52;100.00;98854.56;4944294;28;20864;-96
2022/09/08 02:51:56;;;;;;;7.30;6.70;;;;;;;14.54;100.00;98848.94;4925716;29;20225;-95
2022/09/08 02:54:23;;;;;;;7.67;7.03;;;;;;;14.57;100.00;98845.69;4946356;28;20236;-94
2022/09/08 02:56:50;;;;;;;7.40;6.70;;;;;;;14.64;100.00;98845.47;4937520;28;20224;-95
2022/09/08 02:59:17;;;;;;;7.20;6.63;;;;;;;14.54;100.00;98835.44;4930776;29;20225;-95
2022/09/08 03:01:44;;;;;;;7.53;6.83;;;;;;;14.52;100.00;98833.00;4942250;28;20240;-96
2022/09/08 03:04:11;;;;;;;7.97;7.20;;;;;;;14.56;100.00;98833.28;4975367;28;20231;-95
2022/09/08 03:06:38;;;;;;;8.20;7.50;;;;;;;14.51;100.00;98830.59;4944498;28;20781;-95
2022/09/08 03:09:06;;;;;;;7.70;7.00;;;;;;;14.50;100.00;98832.47;4956147;29;20236;-95
2022/09/08 03:11:33;;;;;;;8.13;7.20;;;;;;;14.40;100.00;98829.75;4951196;28;20328;-95
2022/09/08 03:14:00;;;;;;;7.43;6.80;;;;;;;14.42;100.00;98834.84;4937706;28;20721;-95
2022/09/08 03:16:27;;;;;;;8.50;7.73;;;;;;;14.45;100.00;98834.34;4918611;28;20224;-96
2022/09/08 03:18:54;;;;;;;7.93;7.23;;;;;;;14.40;100.00;98835.13;4943105;28;20233;-95
2022/09/08 03:21:21;;;;;;;7.77;7.07;;;;;;;14.39;100.00;98828.09;4955248;28;20229;-95
2022/09/08 03:23:48;;;;;;;8.40;7.60;;;;;;;14.45;100.00;98826.25;4927709;28;20244;-95
2022/09/08 03:26:17;;;;;;;7.63;6.97;;;;;;;14.39;100.00;98820.03;4955768;29;20236;-95
2022/09/08 03:28:50;;;;;;;8.40;7.60;;;;;;;14.46;100.00;98814.41;4943250;28;20259;-94
2022/09/08 03:31:19;;;;;;;8.07;7.13;;;;;;;14.38;100.00;98822.97;4935673;29;20233;-95
2022/09/08 03:33:46;;;;;;;7.37;6.77;;;;;;;14.36;100.00;98817.88;4925671;28;20255;-95
2022/09/08 03:36:14;;;;;;;7.50;6.90;;;;;;;14.35;100.00;98821.59;4906797;28;20239;-95
2022/09/08 03:38:41;;;;;;;8.20;7.50;;;;;;;14.35;100.00;98810.81;4942504;28;20232;-95
2022/09/08 03:41:10;;;;;;;7.43;6.73;;;;;;;14.34;100.00;98803.81;4943332;28;20315;-94
2022/09/08 03:43:37;;;;;;;7.50;6.80;;;;;;;14.35;100.00;98808.13;4931784;28;20244;-96
2022/09/08 03:46:07;;;;;;;8.03;7.33;;;;;;;14.30;100.00;98812.69;4941959;28;20238;-96
2022/09/08 03:48:34;;;;;;;7.80;7.00;;;;;;;14.32;100.00;98814.06;4917487;29;20323;-95
2022/09/08 03:51:09;;;;;;;8.07;7.33;;;;;;;14.31;100.00;98806.22;4881404;29;20319;-95
2022/09/08 03:53:36;;;;;;;8.17;7.37;;;;;;;14.33;100.00;98801.38;4939775;28;20287;-95
2022/09/08 03:56:08;;;;;;;8.57;7.77;;;;;;;14.29;100.00;98790.31;4920305;28;20224;-96
2022/09/08 03:58:36;;;;;;;8.33;7.53;;;;;;;14.27;100.00;98788.97;4935845;28;20228;-96
2022/09/08 04:01:11;;;;;;;8.40;7.63;;;;;;;14.24;100.00;98787.59;4927353;28;20228;-96
2022/09/08 04:03:38;;;;;;;8.60;7.90;;;;;;;14.22;100.00;98780.88;4943147;28;20231;-95
2022/09/08 04:06:11;;;;;;;8.60;7.70;;;;;;;14.20;100.00;98783.00;4927788;28;20244;-96
2022/09/08 04:08:37;;;;;;;8.87;7.90;;;;;;;14.19;100.00;98778.69;4942553;28;20815;-96
2022/09/08 04:11:05;;;;;;;9.10;8.30;;;;;;;14.27;100.00;98783.56;4940176;28;20236;-96
2022/09/08 04:13:32;;;;;;;8.97;8.07;;;;;;;14.22;100.00;98778.16;4941988;28;20297;-96
2022/09/08 04:15:59;;;;;;;8.57;7.77;;;;;;;14.25;100.00;98783.03;4955877;28;20310;-95
2022/09/08 04:18:25;;;;;;;7.93;7.20;;;;;;;14.25;100.00;98777.63;4941293;28;20615;-95
2022/09/08 04:20:57;;;;;;;8.37;7.50;;;;;;;14.20;100.00;98777.59;4926111;28;20251;-96
2022/09/08 04:23:24;;;;;;;7.83;7.07;;;;;;;14.18;100.00;98761.72;4907894;29;20319;-96
2022/09/08 04:25:58;;;;;;;7.77;6.97;;;;;;;14.18;100.00;98771.69;4924730;29;20232;-95
2022/09/08 04:28:25;;;;;;;8.37;7.50;;;;;;;14.16;100.00;98771.94;4923798;28;20231;-95
2022/09/08 04:30:52;;;;;;;8.10;7.37;;;;;;;14.20;100.00;98778.41;4935402;28;20250;-96
2022/09/08 04:33:19;;;;;;;8.60;7.80;;;;;;;14.24;100.00;98768.72;4931973;28;20228;-96
2022/09/08 04:35:45;;;;;;;9.90;7.77;;;;;;;14.30;100.00;98767.69;4941042;28;20243;-94
2022/09/08 04:38:13;;;;;;;9.13;8.23;;;;;;;14.36;100.00;98763.16;4914230;28;20237;-95
2022/09/08 04:40:41;;;;;;;9.10;8.30;;;;;;;14.42;100.00;98765.59;4923381;28;20250;-95
2022/09/08 04:43:07;;;;;;;8.63;7.83;;;;;;;14.51;100.00;98768.59;4924278;29;20320;-95
2022/09/08 04:45:34;;;;;;;9.60;8.80;;;;;;;14.61;100.00;98763.22;4931388;28;20244;-96
2022/09/08 04:48:01;;;;;;;9.37;8.43;;;;;;;14.61;100.00;98757.81;4934063;28;20241;-95
2022/09/08 04:50:28;;;;;;;9.60;8.80;;;;;;;14.72;100.00;98748.69;4942230;28;20225;-96
2022/09/08 04:52:55;;;;;;;9.40;8.47;;;;;;;14.81;100.00;98744.38;4937632;28;20236;-95
2022/09/08 04:55:22;;;;;;;8.60;7.80;;;;;;;14.87;100.00;98753.28;4957902;28;20232;-95
2022/09/08 04:57:49;;;;;;;8.93;8.13;;;;;;;14.91;100.00;98744.41;4923427;29;20224;-96
2022/09/08 05:00:18;;;;;;;8.07;7.37;;;;;;;15.00;100.00;98755.44;4954714;28;20232;-95
2022/09/08 05:02:46;;;;;;;9.37;8.47;;;;;;;15.18;100.00;98752.22;4955169;28;20233;-94
2022/09/08 05:05:12;;;;;;;9.87;8.90;;;;;;;15.35;100.00;98739.25;4941266;28;20236;-95
2022/09/08 05:07:39;;;;;;;10.20;9.30;;;;;;;15.64;100.00;98738.69;4938722;29;20240;-95
2022/09/08 05:10:06;;;;;;;10.07;9.10;;;;;;;15.78;100.00;98726.22;4940953;28;20228;-96
2022/09/08 05:12:34;;;;;;;9.27;8.47;;;;;;;15.84;100.00;98717.84;4954867;29;20229;-95
2022/09/08 05:15:00;;;;;;;10.13;9.13;;;;;;;15.96;100.00;98725.63;4939861;28;20770;-96
2022/09/08 05:17:29;;;;;;;9.60;8.50;;;;;;;16.10;100.00;98723.94;4930022;29;20723;-95
2022/09/08 05:19:55;;;;;;;9.13;8.23;;;;;;;16.28;100.00;98719.81;4924461;29;20319;-96
2022/09/08 05:22:22;;;;;;;9.60;8.80;;;;;;;16.52;100.00;98725.34;4922753;28;20236;-95
2022/09/08 05:24:50;;;;;;;9.93;8.87;;;;;;;16.69;100.00;98721.22;4951775;28;20248;-95
2022/09/08 05:27:16;;;;;;;9.53;8.67;;;;;;;16.82;100.00;98716.25;4940620;28;20232;-95
2022/09/08 05:29:43;;;;;;;9.60;8.67;;;;;;;17.05;100.00;98697.41;4933769;28;20243;-95
2022/09/08 05:32:10;;;;;;;10.10;9.10;;;;;;;17.17;100.00;98692.41;4942358;28;20229;-95
2022/09/08 05:34:36;;;;;;;10.67;9.47;;;;;;;17.39;100.00;98710.06;4926681;29;20231;-96
2022/09/08 05:37:03;;;;;;;9.20;8.37;;;;;;;17.59;100.00;98710.69;4920685;29;20243;-95
2022/09/08 05:39:30;;;;;;;10.50;8.37;;;;;;;17.78;100.00;98699.91;4951264;29;20237;-95
2022/09/08 05:41:57;;;;;;;10.30;9.30;;;;;;;17.92;100.00;98694.59;4949944;28;20244;-96
2022/09/08 05:44:24;;;;;;;9.57;8.53;;;;;;;17.95;100.00;98688.63;4933032;29;20240;-95
2022/09/08 05:46:50;;;;;;;10.97;9.87;;;;;;;18.06;100.00;98697.44;4938408;29;20248;-96
2022/09/08 05:49:17;;;;;;;12.50;11.60;;;;;;;18.34;100.00;98697.31;4961166;28;20319;-95
2022/09/08 05:51:44;;;;;;;12.20;11.20;;;;;;;18.41;100.00;98703.19;4928877;29;20243;-96
2022/09/08 05:54:10;;;;;;;12.03;10.97;;;;;;;18.60;100.00;98710.53;4953454;29;20284;-95
2022/09/08 05:56:37;;;;;;;12.10;11.00;;;;;;;18.68;100.00;98713.41;4928278;28;20232;-95
2022/09/08 05:59:04;;;;;;;12.63;11.63;;;;;;;18.77;100.00;98706.19;4942629;28;20320;-95
2022/09/08 06:01:33;;;;;;;10.50;9.50;;;;;;;18.87;100.00;98710.66;4929447;28;20699;-94
2022/09/08 06:04:01;;;;;;;11.03;8.57;;;;;;;18.94;100.00;98711.09;4941310;28;20307;-95
2022/09/08 06:06:29;;;;;;;8.77;7.97;;;;;;;18.97;100.00;98709.69;4941112;29;20240;-95
2022/09/08 06:08:59;;;;;;;9.23;8.33;;;;;;;19.02;100.00;98718.56;4924896;28;20242;-95
2022/09/08 06:11:29;;;;;;;8.57;7.77;;;;;;;19.15;100.00;98712.38;4929828;28;20266;-95
2022/09/08 06:13:55;;;;;;;8.60;7.80;;;;;;;19.26;100.00;98699.44;4929639;28;20227;-95
2022/09/08 06:16:22;;;;;;;8.60;7.80;;;;;;;19.43;100.00;98690.69;4944489;28;20249;-95
2022/09/08 06:18:50;;;;;;;9.80;8.30;;;;;;;19.63;100.00;98690.38;4942705;28;20239;-96
2022/09/08 06:21:23;;;;;;;8.37;7.60;;;;;;;19.83;100.00;98687.22;4939139;28;20260;-96
2022/09/08 06:23:51;;;;;;;8.73;7.33;;;;;;;20.09;100.00;98701.94;4942864;29;20250;-95
2022/09/08 06:26:26;;;;;;;7.77;7.07;;;;;;;20.26;100.00;98706.72;4933041;28;20230;-96
2022/09/08 06:29:16;;;;;;;8.43;7.60;;;;;;;20.44;100.00;98703.09;4940289;28;20737;-96
2022/09/08 06:31:48;;;;;;;9.10;7.63;;;;;;;20.59;100.00;98705.47;4953808;28;20239;-95
2022/09/08 06:34:26;;;;;;;8.77;8.07;;;;;;;20.85;100.00;98711.16;4953018;29;20238;-95
2022/09/08 06:37:04;;;;;;;8.90;8.13;;;;;;;21.00;100.00;98699.84;4932374;28;20230;-95
2022/09/08 06:39:43;;;;;;;8.73;7.93;;;;;;;21.16;100.00;98700.31;4933467;28;20238;-95
2022/09/08 06:42:14;;;;;;;9.07;8.27;;;;;;;21.26;100.00;98702.00;4943569;28;20241;-95
2022/09/08 06:44:42;;;;;;;9.03;7.80;;;;;;;21.29;100.00;98702.16;4941654;28;20725;-94
2022/09/08 06:47:13;;;;;;;9.23;8.13;;;;;;;21.29;100.00;98710.34;4937882;28;20236;-94
2022/09/08 06:49:46;;;;;;;9.75;7.20;;;;;;;21.23;100.00;98717.03;4927844;28;20734;-95
2022/09/08 06:52:45;;;;;;;8.37;7.67;;;;;;;21.49;100.00;98706.28;4956554;28;20240;-95
2022/09/08 06:55:58;;;;;;;7.77;7.07;;;;;;;21.82;100.00;98709.47;4942464;28;20236;-94
2022/09/08 06:58:46;;;;;;;7.73;7.03;;;;;;;21.90;100.00;98701.31;4941078;28;20258;-94
2022/09/08 07:01:22;;;;;;;7.95;6.50;;;;;;;21.95;100.00;98693.03;4930749;28;20259;-95
2022/09/08 07:04:12;;;;;;;7.80;7.10;;;;;;;22.13;100.00;98691.16;4944166;28;20765;-95
2022/09/08 07:06:55;;;;;;;7.10;6.50;;;;;;;22.34;100.00;98685.91;4943425;28;20241;-95
2022/09/08 07:09:41;;;;;;;9.13;6.72;;;;;;;22.52;100.00;98694.91;4925311;28;20711;-95
2022/09/08 07:12:23;;;;;;;7.00;6.30;;;;;;;22.51;100.00;98690.56;4949757;28;20244;-94
2022/09/08 07:15:04;;;;;;;8.25;5.85;;;;;;;22.57;100.00;98679.19;4955501;28;20236;-94
2022/09/08 07:17:35;;;;;;;6.43;5.90;;;;;;;22.58;100.00;98688.16;4938482;28;20232;-95
2022/09/08 07:20:08;;;;;;;6.55;5.95;;;;;;;22.58;100.00;98680.78;4943484;28;20240;-95
2022/09/08 07:22:47;;;;;;;6.85;6.18;;;;;;;22.57;100.00;98672.91;4926760;28;20247;-95
2022/09/08 07:25:36;;;;;;;8.43;6.30;;;;;;;22.60;100.00;98675.78;4952011;28;20291;-94
2022/09/08 07:28:10;;;;;;;6.38;5.80;;;;;;;22.85;100.00;98667.94;4937864;28;20245;-95
2022/09/08 07:30:38;;;;;;;6.60;5.88;;;;;;;23.08;100.00;98669.34;4924791;29;20264;-95
2022/09/08 07:33:22;;;;;;;9.93;5.60;;;;;;;23.28;94.88;98660.47;4948042;28;20320;-95
2022/09/08 07:36:39;;;;;;;10.27;5.47;;;;;;;23.51;92.18;98656.41;4924160;29;20285;-95
2022/09/08 07:39:27;;;;;;;12.50;5.00;;;;;;;23.74;89.71;98654.22;4903908;28;20234;-95
2022/09/08 07:41:55;;;;;;;7.03;4.65;;;;;;;23.95;87.68;98651.50;4949563;28;20257;-95
2022/09/08 07:44:22;;;;;;;6.95;4.78;;;;;;;24.07;86.43;98651.63;4970335;28;20236;-96
2022/09/08 07:47:15;;;;;;;8.13;4.35;;;;;;;24.19;84.04;98651.72;4939767;28;20247;-95
2022/09/08 07:50:14;;;;;;;5.10;4.57;;;;;;;24.25;79.78;98649.59;4935850;28;20380;-95
2022/09/08 07:53:11;;;;;;;5.28;3.45;;;;;;;24.41;77.96;98651.41;4920114;29;20686;-95
2022/09/08 07:55:42;;;;;;;4.47;4.07;;;;;;;24.61;75.70;98665.41;4937935;28;20706;-94
2022/09/08 07:58:21;;;;;;;4.05;3.67;;;;;;;24.68;74.10;98660.22;4942308;28;20233;-96
2022/09/08 08:00:59;;;;;;;4.75;3.58;;;;;;;24.82;73.66;98658.00;4943027;28;20262;-95
2022/09/08 08:03:27;;;;;;;4.05;3.65;;;;;;;24.96;73.32;98655.81;4952125;28;20238;-96
2022/09/08 08:06:06;;;;;;;6.53;3.80;;;;;;;25.11;70.76;98649.66;4942086;28;20837;-95
2022/09/08 08:08:49;;;;;;;5.85;3.70;;;;;;;25.30;67.99;98643.66;4958954;28;20228;-95
2022/09/08 08:11:25;;;;;;;6.57;3.90;;;;;;;25.39;70.74;98653.38;4942682;28;20236;-95
2022/09/08 08:14:26;;;;;;;3.90;3.58;;;;;;;25.58;70.82;98657.53;4958477;28;20234;-96
2022/09/08 08:17:15;;;;;;;5.00;3.40;;;;;;;25.78;63.76;98642.94;4958472;28;20238;-94
2022/09/08 08:19:52;;;;;;;4.10;3.35;;;;;;;26.06;61.06;98643.81;4923969;28;20239;-94
2022/09/08 08:22:31;;;;;;;3.22;2.92;;;;;;;26.11;61.18;98643.59;4958610;28;20274;-95
2022/09/08 08:25:05;;;;;;;4.35;3.13;;;;;;;26.18;60.33;98640.25;4939306;28;20240;-96
2022/09/08 08:27:40;;;;;;;4.00;2.88;;;;;;;26.32;59.11;98643.47;4938795;28;20243;-96
2022/09/08 08:30:25;;;;;;;3.40;3.10;;;;;;;26.44;58.55;98634.41;4923511;28;20235;-95
2022/09/08 08:33:29;;;;;;;4.50;3.20;;;;;;;26.47;57.29;98642.75;4936891;28;20237;-95
2022/09/08 08:36:00;;;;;;;5.18;3.10;;;;;;;26.49;57.35;98647.88;4938850;28;20260;-95
2022/09/08 08:38:39;;;;;;;6.50;3.20;;;;;;;26.59;57.12;98656.44;4957448;28;20245;-95
2022/09/08 08:41:31;;;;;;;4.80;3.30;;;;;;;26.70;57.79;98654.78;4943423;28;20229;-94
2022/09/08 08:44:30;;;;;;;5.85;3.10;;;;;;;26.86;57.83;98662.31;4954411;28;20236;-95
2022/09/08 08:47:18;;;;;;;5.22;3.10;;;;;;;27.06;58.47;98664.84;4931692;29;20291;-96
2022/09/08 08:50:21;;;;;;;4.38;3.33;;;;;;;27.26;58.16;98660.28;4949692;28;20236;-94
2022/09/08 08:53:10;;;;;;;3.80;3.50;;;;;;;27.21;59.45;98659.72;4941594;28;20235;-95
2022/09/08 08:56:04;;;;;;;5.72;3.50;;;;;;;27.30;58.07;98655.66;4951435;28;20762;-94
2022/09/08 08:58:33;;;;;;;5.15;3.35;;;;;;;27.41;58.74;98654.00;4908941;29;20248;-94
2022/09/08 09:01:43;;;;;;;7.00;3.72;;;;;;;27.50;58.42;98660.16;4966799;28;20243;-95
2022/09/08 09:04:54;;;;;;;4.10;3.47;;;;;;;27.59;57.35;98657.22;4948266;28;20231;-95
2022/09/08 09:07:34;;;;;;;4.38;3.50;;;;;;;27.70;57.96;98654.75;4919471;28;20263;-95
2022/09/08 09:10:38;;;;;;;4.57;3.70;;;;;;;27.79;57.12;98669.94;4929552;28;20232;-95
2022/09/08 09:13:24;;;;;;;6.88;4.00;;;;;;;28.00;58.09;98673.19;4941130;28;20251;-95
2022/09/08 09:16:17;;;;;;;3.83;3.33;;;;;;;27.96;58.76;98668.75;4956251;28;20232;-96
2022/09/08 09:18:44;;;;;;;5.13;3.78;;;;;;;28.02;58.28;98670.06;4934572;28;20283;-95
2022/09/08 09:21:27;;;;;;;5.30;3.80;;;;;;;27.77;59.73;98657.66;4958469;28;20228;-95
2022/09/08 09:24:20;;;;;;;6.40;4.00;;;;;;;27.69;61.16;98655.91;4941169;28;20229;-95
2022/09/08 09:26:49;;;;;;;6.47;3.67;;;;;;;27.93;60.06;98648.25;4961480;28;20232;-95
2022/09/08 09:29:21;;;;;;;6.00;3.53;;;;;;;27.83;57.45;98653.50;4947908;28;20236;-96
2022/09/08 09:32:09;;;;;;;6.22;3.70;;;;;;;27.92;57.43;98656.84;4943365;28;20243;-96
2022/09/08 09:35:19;;;;;;;4.18;3.28;;;;;;;28.03;57.11;98660.66;4931504;28;20232;-95
2022/09/08 09:38:04;;;;;;;9.02;3.70;;;;;;;28.11;58.46;98656.94;4946285;28;20243;-95
2022/09/08 09:40:44;;;;;;;6.15;3.78;;;;;;;28.24;57.06;98665.88;4937586;28;20233;-95
2022/09/08 09:43:14;;;;;;;5.15;3.80;;;;;;;28.34;56.10;98657.06;4977383;28;20661;-95
2022/09/08 09:45:56;;;;;;;6.53;3.97;;;;;;;28.35;57.67;98655.91;4960793;28;20253;-96
2022/09/08 09:48:35;;;;;;;4.38;3.97;;;;;;;28.37;57.13;98646.13;4944973;28;20999;-95
2022/09/08 09:51:14;;;;;;;7.30;3.65;;;;;;;28.42;56.88;98642.28;4963635;28;20239;-95
2022/09/08 09:53:44;;;;;;;5.20;3.70;;;;;;;28.12;58.32;98650.28;4963596;28;20271;-95
2022/09/08 09:56:32;;;;;;;5.20;3.88;;;;;;;28.16;60.06;98659.41;4954767;28;20316;-95
2022/09/08 09:59:26;;;;;;;6.57;4.25;;;;;;;28.51;57.37;98667.66;4955336;28;20347;-95
2022/09/08 10:02:18;;;;;;;6.25;3.83;;;;;;;28.51;56.80;98678.69;4952940;28;20228;-95
2022/09/08 10:05:08;;;;;;;4.68;3.75;;;;;;;28.83;55.73;98677.44;4949938;28;20233;-95
2022/09/08 10:07:44;;;;;;;7.25;3.78;;;;;;;29.00;54.71;98678.16;4956616;28;20256;-95
2022/09/08 10:10:29;;;;;;;4.97;3.65;;;;;;;28.97;53.91;98671.41;4959323;29;20279;-95
2022/09/08 10:13:16;;;;;;;8.60;3.80;;;;;;;29.10;53.51;98672.84;4949131;29;20730;-95
2022/09/08 10:16:18;;;;;;;7.65;3.58;;;;;;;29.00;53.14;98673.44;4949640;29;20225;-95
2022/09/08 10:18:51;;;;;;;5.50;3.92;;;;;;;28.53;55.75;98690.16;4901299;28;20279;-95
2022/09/08 10:22:06;;;;;;;4.60;3.70;;;;;;;28.65;54.92;98692.75;4958052;28;20241;-96
2022/09/08 10:24:48;;;;;;;5.75;3.97;;;;;;;28.80;53.95;98691.13;4925991;29;20229;-96
2022/09/08 10:27:39;;;;;;;6.43;3.90;;;;;;;29.02;53.27;98695.13;4941988;28;20248;-96
2022/09/08 10:30:13;;;;;;;6.40;3.97;;;;;;;28.90;52.95;98682.28;4952810;29;20747;-96
2022/09/08 10:32:42;;;;;;;4.38;3.47;;;;;;;29.08;53.54;98694.47;4925951;29;20316;-96
2022/09/08 10:35:37;;;;;;;5.88;3.63;;;;;;;29.09;52.47;98696.06;4941318;28;20224;-95
2022/09/08 10:38:19;;;;;;;5.57;3.80;;;;;;;28.45;53.04;98691.16;4957580;28;20778;-96
2022/09/08 10:41:06;;;;;;;4.20;3.78;;;;;;;29.04;52.81;98693.59;4969935;28;20236;-95
2022/09/08 10:44:10;;;;;;;9.18;4.15;;;;;;;28.62;53.84;98690.75;4941944;29;20298;-96
2022/09/08 10:47:24;;;;;;;4.53;3.88;;;;;;;29.19;52.41;98695.47;4942886;28;20235;-95
2022/09/08 10:50:14;;;;;;;4.10;3.40;;;;;;;29.23;50.55;98693.59;4954996;28;20232;-96
2022/09/08 10:53:11;;;;;;;5.68;3.75;;;;;;;29.43;51.57;98707.38;4949879;28;20303;-95
2022/09/08 10:56:13;;;;;;;6.28;4.03;;;;;;;30.00;50.92;98711.94;4951711;28;20236;-95
2022/09/08 10:58:58;;;;;;;4.82;3.80;;;;;;;28.83;52.57;98720.75;4950868;28;20232;-95
2022/09/08 11:01:43;;;;;;;4.15;3.72;;;;;;;29.22;51.96;98716.81;4958010;28;20650;-95
2022/09/08 11:04:47;;;;;;;5.70;3.90;;;;;;;29.49;51.03;98728.00;4953094;28;20746;-95
2022/09/08 11:07:23;;;;;;;5.50;4.00;;;;;;;29.99;49.05;98733.25;4940157;28;20236;-95
2022/09/08 11:10:11;;;;;;;6.70;4.10;;;;;;;30.08;48.75;98744.81;4956706;29;20249;-95
2022/09/08 11:13:22;;;;;;;5.70;3.90;;;;;;;30.68;47.25;98735.88;4953822;28;20263;-95
2022/09/08 11:16:01;;;;;;;4.00;3.60;;;;;;;30.67;48.22;98737.84;4947402;28;20240;-96
2022/09/08 11:18:43;;;;;;;5.85;3.85;;;;;;;30.57;48.01;98744.00;4959446;28;20631;-95
2022/09/08 11:21:24;;;;;;;4.60;4.00;;;;;;;30.59;46.76;98745.25;4946112;29;20252;-95
2022/09/08 11:24:15;;;;;;;4.32;3.92;;;;;;;29.96;47.06;98714.63;4921563;28;20232;-95
2022/09/08 11:27:02;;;;;;;6.68;4.47;;;;;;;30.48;47.34;98721.38;4950699;28;20240;-95
2022/09/08 11:29:33;;;;;;;4.13;3.83;;;;;;;30.26;47.40;98723.00;4938932;28;20237;-96
2022/09/08 11:32:15;;;;;;;5.57;3.55;;;;;;;29.96;47.44;98725.69;4940837;28;20229;-95
2022/09/08 11:35:27;;;;;;;9.18;4.40;;;;;;;29.39;48.64;98706.50;4942314;28;20236;-95
2022/09/08 11:38:15;;;;;;;6.65;4.00;;;;;;;29.03;50.06;98702.22;4925982;28;20258;-95
2022/09/08 11:41:19;;;;;;;6.63;4.22;;;;;;;29.55;49.35;98701.66;4953578;28;20324;-96
2022/09/08 11:44:08;;;;;;;4.18;3.78;;;;;;;29.92;48.14;98702.72;4949264;28;20749;-95
2022/09/08 11:47:03;;;;;;;5.40;4.20;;;;;;;29.66;48.88;98711.75;4939617;28;20263;-95
2022/09/08 11:49:48;;;;;;;4.80;4.32;;;;;;;29.22;50.02;98724.28;4966090;28;20236;-95
2022/09/08 11:52:35;;;;;;;6.18;4.20;;;;;;;29.23;50.10;98710.13;4951140;28;20224;-95
2022/09/08 11:55:36;;;;;;;5.70;4.50;;;;;;;29.05;49.70;98724.72;4975221;28;20232;-96
2022/09/08 11:58:21;;;;;;;5.10;4.57;;;;;;;29.85;48.05;98723.88;4947377;28;20246;-95
2022/09/08 12:01:52;;;;;;;7.32;4.95;;;;;;;29.57;48.88;98733.28;4938667;28;20245;-95
2022/09/08 12:04:47;;;;;;;6.07;4.50;;;;;;;29.49;50.16;98728.75;4868403;29;20767;-95
2022/09/08 12:07:32;;;;;;;4.97;4.50;;;;;;;28.64;51.66;98723.44;4864760;29;20227;-95
2022/09/08 12:10:00;;;;;;;4.70;4.30;;;;;;;28.53;52.09;98737.00;4935733;28;20307;-95
2022/09/08 12:12:51;;;;;;;7.03;5.05;;;;;;;28.24;53.21;98745.75;4956014;28;20231;-95